createdAt,value
2023-03-08T00:00:39.066Z,6.40
2023-03-08T00:03:07.076Z,6.50
2023-03-08T00:05:34.958Z,6.50
2023-03-08T00:08:03.204Z,6.40
2023-03-08T00:10:31.046Z,6.40
2023-03-08T00:13:00.263Z,6.40
2023-03-08T00:15:28.152Z,6.50
2023-03-08T00:17:56.037Z,6.50
2023-03-08T00:20:23.894Z,6.50
2023-03-08T00:22:51.689Z,6.60
2023-03-08T00:25:19.809Z,6.60
2023-03-08T00:27:47.683Z,6.50
2023-03-08T00:30:19.209Z,6.50
2023-03-08T00:32:47.072Z,6.50
2023-03-08T00:35:14.919Z,6.50
2023-03-08T00:37:42.778Z,6.60
2023-03-08T00:40:11.697Z,6.50
2023-03-08T00:42:39.862Z,6.50
2023-03-08T00:45:09.073Z,6.50
2023-03-08T00:47:38.251Z,6.40
2023-03-08T00:50:07.175Z,6.50
2023-03-08T00:52:34.997Z,6.30
2023-03-08T00:55:02.909Z,6.30
2023-03-08T00:57:31.465Z,6.30
2023-03-08T00:59:59.411Z,6.20
2023-03-08T01:02:27.489Z,6.20
2023-03-08T01:04:58.021Z,6.20
2023-03-08T01:07:28.479Z,6.20
2023-03-08T01:09:56.715Z,6.20
2023-03-08T01:12:25.351Z,6.20
2023-03-08T01:14:53.330Z,6.20
2023-03-08T01:17:21.265Z,6.10
2023-03-08T01:19:49.098Z,6.10
2023-03-08T01:22:18.335Z,6.10
2023-03-08T01:24:46.244Z,6.00
2023-03-08T01:27:14.494Z,6.00
2023-03-08T01:29:42.526Z,6.00
2023-03-08T01:32:10.934Z,6.00
2023-03-08T01:34:38.984Z,6.00
2023-03-08T01:37:07.041Z,6.00
2023-03-08T01:39:36.285Z,6.00
2023-03-08T01:42:07.471Z,6.00
2023-03-08T01:44:54.618Z,5.90
2023-03-08T01:47:24.287Z,5.90
2023-03-08T01:49:54.892Z,5.90
2023-03-08T01:52:26.049Z,5.90
2023-03-08T01:54:57.899Z,5.90
2023-03-08T01:57:29.358Z,5.90
2023-03-08T01:59:59.688Z,5.90
2023-03-08T02:02:31.957Z,5.90
2023-03-08T02:05:00.016Z,5.90
2023-03-08T02:07:28.288Z,5.90
2023-03-08T02:09:57.683Z,6.00
2023-03-08T02:12:26.637Z,6.00
2023-03-08T02:14:56.128Z,5.90
2023-03-08T02:17:24.115Z,6.00
2023-03-08T02:19:56.229Z,6.00
2023-03-08T02:22:24.972Z,6.00
2023-03-08T02:24:54.191Z,6.00
2023-03-08T02:27:27.008Z,6.00
2023-03-08T02:29:54.850Z,6.00
2023-03-08T02:32:23.224Z,6.00
2023-03-08T02:34:51.209Z,6.00
2023-03-08T02:37:19.026Z,5.90
2023-03-08T02:39:46.892Z,5.90
2023-03-08T02:42:16.033Z,5.80
2023-03-08T02:44:44.078Z,5.80
2023-03-08T02:47:12.910Z,5.90
2023-03-08T02:49:40.737Z,5.80
2023-03-08T02:52:08.677Z,5.80
2023-03-08T02:54:36.556Z,5.90
2023-03-08T02:57:04.537Z,5.90
2023-03-08T02:59:33.743Z,5.80
2023-03-08T03:02:02.019Z,5.80
2023-03-08T03:04:31.268Z,5.80
2023-03-08T03:06:59.274Z,5.90
2023-03-08T03:09:27.643Z,5.80
2023-03-08T03:11:55.784Z,5.80
2023-03-08T03:14:24.056Z,5.70
2023-03-08T03:16:53.293Z,5.70
2023-03-08T03:19:21.279Z,5.70
2023-03-08T03:21:49.318Z,5.60
2023-03-08T03:24:17.249Z,5.60
2023-03-08T03:26:45.113Z,5.60
2023-03-08T03:29:13.076Z,5.50
2023-03-08T03:31:41.241Z,5.40
2023-03-08T03:34:10.448Z,5.40
2023-03-08T03:36:38.408Z,5.30
2023-03-08T03:39:06.931Z,5.40
2023-03-08T03:41:34.920Z,5.30
2023-03-08T03:44:02.924Z,5.20
2023-03-08T03:46:30.862Z,5.20
2023-03-08T03:48:59.041Z,5.20
2023-03-08T03:51:28.416Z,5.20
2023-03-08T03:53:58.508Z,5.30
2023-03-08T03:56:28.699Z,5.40
2023-03-08T03:58:56.672Z,5.50
2023-03-08T04:01:26.709Z,5.50
2023-03-08T04:03:56.052Z,5.50
2023-03-08T04:06:26.713Z,5.50
2023-03-08T04:08:57.392Z,5.50
2023-03-08T04:11:28.272Z,5.50
2023-03-08T04:13:56.746Z,5.50
2023-03-08T04:16:28.774Z,5.40
2023-03-08T04:18:59.341Z,5.30
2023-03-08T04:21:27.626Z,5.10
2023-03-08T04:23:58.893Z,5.00
2023-03-08T04:26:28.353Z,4.90
2023-03-08T04:28:56.399Z,4.80
2023-03-08T04:31:26.974Z,4.80
2023-03-08T04:33:54.986Z,4.70
2023-03-08T04:36:23.680Z,4.70
2023-03-08T04:38:52.367Z,4.70
2023-03-08T04:41:21.616Z,4.70
2023-03-08T04:43:51.154Z,4.70
2023-03-08T04:46:21.065Z,4.70
2023-03-08T04:48:49.149Z,4.60
2023-03-08T04:51:18.467Z,4.60
2023-03-08T04:53:47.161Z,4.50
2023-03-08T04:56:17.464Z,4.50
2023-03-08T04:58:46.886Z,4.60
2023-03-08T05:01:17.480Z,4.60
2023-03-08T05:03:45.763Z,4.60
2023-03-08T05:06:15.048Z,4.60
2023-03-08T05:08:43.139Z,4.60
2023-03-08T05:11:12.106Z,4.60
2023-03-08T05:13:40.626Z,4.60
2023-03-08T05:16:10.221Z,4.60
2023-03-08T05:18:38.159Z,4.60
2023-03-08T05:21:11.355Z,4.70
2023-03-08T05:23:39.330Z,4.70
2023-03-08T05:26:08.537Z,4.70
2023-03-08T05:28:38.159Z,4.70
2023-03-08T05:31:08.281Z,4.80
2023-03-08T05:33:38.173Z,4.80
2023-03-08T05:36:07.878Z,4.80
2023-03-08T05:38:36.303Z,4.80
2023-03-08T05:41:06.862Z,4.80
2023-03-08T05:43:35.544Z,4.70
2023-03-08T05:46:05.670Z,4.70
2023-03-08T05:48:35.245Z,4.80
2023-03-08T05:51:08.432Z,4.70
2023-03-08T05:53:37.095Z,4.70
2023-03-08T05:56:10.742Z,4.70
2023-03-08T05:58:39.209Z,4.70
2023-03-08T06:01:12.707Z,4.70
2023-03-08T06:03:41.301Z,4.70
2023-03-08T06:06:10.676Z,4.70
2023-03-08T06:08:38.998Z,4.70
2023-03-08T06:11:07.414Z,4.70
2023-03-08T06:13:35.449Z,4.70
2023-03-08T06:16:04.489Z,4.70
2023-03-08T06:18:33.483Z,4.70
2023-03-08T06:21:03.035Z,4.70
2023-03-08T06:23:33.655Z,4.70
2023-03-08T06:26:02.766Z,4.70
2023-03-08T06:28:31.686Z,4.70
2023-03-08T06:31:00.048Z,4.60
2023-03-08T06:33:30.083Z,4.60
2023-03-08T06:35:59.154Z,4.60
2023-03-08T06:38:29.687Z,4.60
2023-03-08T06:40:59.746Z,4.60
2023-03-08T06:43:27.918Z,4.60
2023-03-08T06:45:56.464Z,4.60
2023-03-08T06:48:24.987Z,4.60
2023-03-08T06:50:52.858Z,4.60
2023-03-08T06:53:20.737Z,4.70
2023-03-08T06:55:48.865Z,4.70
2023-03-08T06:58:18.333Z,4.70
2023-03-08T07:00:46.172Z,4.70
2023-03-08T07:03:14.901Z,4.70
2023-03-08T07:05:42.944Z,4.70
2023-03-08T07:08:10.846Z,4.70
2023-03-08T07:10:39.064Z,4.70
2023-03-08T07:13:07.266Z,4.70
2023-03-08T07:15:40.757Z,4.70
2023-03-08T07:18:08.804Z,4.70
2023-03-08T07:20:36.777Z,4.80
2023-03-08T07:23:04.590Z,4.80
2023-03-08T07:25:32.464Z,4.80
2023-03-08T07:28:00.804Z,4.70
2023-03-08T07:30:28.827Z,4.70
2023-03-08T07:32:58.086Z,4.60
2023-03-08T07:35:26.017Z,4.50
2023-03-08T07:37:54.283Z,4.30
2023-03-08T07:40:22.551Z,4.20
2023-03-08T07:42:50.905Z,4.10
2023-03-08T07:45:18.999Z,4.00
2023-03-08T07:47:46.830Z,3.90
2023-03-08T07:50:16.077Z,3.90
2023-03-08T07:52:43.931Z,3.80
2023-03-08T07:55:12.091Z,3.70
2023-03-08T07:57:40.069Z,3.60
2023-03-08T08:00:09.538Z,3.50
2023-03-08T08:02:37.842Z,3.50
2023-03-08T08:05:06.906Z,3.40
2023-03-08T08:07:36.446Z,3.30
2023-03-08T08:10:04.765Z,3.20
2023-03-08T08:12:32.684Z,3.20
2023-03-08T08:15:00.617Z,3.10
2023-03-08T08:17:28.583Z,3.00
2023-03-08T08:19:56.418Z,3.00
2023-03-08T08:22:24.604Z,3.00
2023-03-08T08:24:53.874Z,2.90
2023-03-08T08:27:21.719Z,2.90
2023-03-08T08:29:50.870Z,2.90
2023-03-08T08:32:18.995Z,2.90
2023-03-08T08:34:47.234Z,2.90
2023-03-08T08:37:15.081Z,2.90
2023-03-08T08:39:42.914Z,2.80
2023-03-08T08:42:12.192Z,2.90
2023-03-08T08:44:40.012Z,2.90
2023-03-08T08:47:09.032Z,2.90
2023-03-08T08:49:36.936Z,2.80
2023-03-08T08:52:05.340Z,2.80
2023-03-08T08:54:34.120Z,2.80
2023-03-08T08:57:02.154Z,2.80
2023-03-08T08:59:31.411Z,2.80
2023-03-08T09:01:59.418Z,2.80
2023-03-08T09:04:27.522Z,2.80
2023-03-08T09:06:55.488Z,2.80
2023-03-08T09:09:23.485Z,2.80
2023-03-08T09:11:55.600Z,2.80
2023-03-08T09:14:25.709Z,2.80
2023-03-08T09:16:54.983Z,2.80
2023-03-08T09:19:22.895Z,2.80
2023-03-08T09:21:50.771Z,2.90
2023-03-08T09:24:18.957Z,2.90
2023-03-08T09:26:47.058Z,2.90
2023-03-08T09:29:14.970Z,2.90
2023-03-08T09:31:45.297Z,2.90
2023-03-08T09:34:15.496Z,2.90
2023-03-08T09:36:43.857Z,2.90
2023-03-08T09:39:14.104Z,2.90
2023-03-08T09:41:58.053Z,2.90
2023-03-08T09:44:57.977Z,2.80
2023-03-08T09:47:33.996Z,2.80
2023-03-08T09:50:16.471Z,2.80
2023-03-08T09:52:48.740Z,2.90
2023-03-08T09:55:26.140Z,2.90
2023-03-08T09:57:56.835Z,2.90
2023-03-08T10:00:29.389Z,3.00
2023-03-08T10:03:16.604Z,3.00
2023-03-08T10:05:53.167Z,3.00
2023-03-08T10:08:25.732Z,3.00
2023-03-08T10:11:00.449Z,2.90
2023-03-08T10:13:32.031Z,2.90
2023-03-08T10:16:13.702Z,2.90
2023-03-08T10:18:46.588Z,3.00
2023-03-08T10:21:19.692Z,3.00
2023-03-08T10:23:49.645Z,3.00
2023-03-08T10:26:18.692Z,3.10
2023-03-08T10:28:46.774Z,3.10
2023-03-08T10:31:21.969Z,3.10
2023-03-08T10:33:56.970Z,3.10
2023-03-08T10:36:26.844Z,3.10
2023-03-08T10:39:06.534Z,3.10
2023-03-08T10:41:42.217Z,3.10
2023-03-08T10:44:15.551Z,3.10
2023-03-08T10:46:51.084Z,3.20
2023-03-08T10:49:20.177Z,3.20
2023-03-08T10:51:58.250Z,3.30
2023-03-08T10:54:27.574Z,3.40
2023-03-08T10:56:59.063Z,3.40
2023-03-08T10:59:32.554Z,3.40
2023-03-08T11:02:03.266Z,3.50
2023-03-08T11:04:32.000Z,3.50
2023-03-08T11:07:12.787Z,3.60
2023-03-08T11:09:40.780Z,3.60
2023-03-08T11:12:23.967Z,3.60
2023-03-08T11:14:53.170Z,3.70
2023-03-08T11:17:29.496Z,3.80
2023-03-08T11:20:11.152Z,3.90
2023-03-08T11:22:51.885Z,3.90
2023-03-08T11:25:34.796Z,4.00
2023-03-08T11:28:18.632Z,4.10
2023-03-08T11:30:59.075Z,4.20
2023-03-08T11:33:46.411Z,4.30
2023-03-08T11:36:22.183Z,4.50
2023-03-08T11:38:58.015Z,4.60
2023-03-08T11:41:32.873Z,4.70
2023-03-08T11:44:22.829Z,4.80
2023-03-08T11:47:08.466Z,4.90
2023-03-08T11:49:59.132Z,5.00
2023-03-08T11:52:33.731Z,5.10
2023-03-08T11:55:22.379Z,5.20
2023-03-08T11:57:55.933Z,5.30
2023-03-08T12:00:29.797Z,5.40
2023-03-08T12:03:05.861Z,5.50
2023-03-08T12:05:38.585Z,5.60
2023-03-08T12:08:15.222Z,5.70
2023-03-08T12:10:50.656Z,5.80
2023-03-08T12:13:23.992Z,5.90
2023-03-08T12:15:56.583Z,6.10
2023-03-08T12:18:30.485Z,6.20
2023-03-08T12:21:06.910Z,6.30
2023-03-08T12:23:40.873Z,6.40
2023-03-08T12:26:15.294Z,6.50
2023-03-08T12:28:48.055Z,6.60
2023-03-08T12:31:27.747Z,6.70
2023-03-08T12:33:58.404Z,6.80
2023-03-08T12:36:38.599Z,7.00
2023-03-08T12:39:09.074Z,7.10
2023-03-08T12:41:38.409Z,7.30
2023-03-08T12:44:22.994Z,7.40
2023-03-08T12:47:02.836Z,7.50
2023-03-08T12:49:34.321Z,7.60
2023-03-08T12:52:06.241Z,7.70
2023-03-08T12:54:36.355Z,7.80
2023-03-08T12:57:17.338Z,7.90
2023-03-08T12:59:46.586Z,8.00
2023-03-08T13:02:26.353Z,8.10
2023-03-08T13:05:05.018Z,8.20
2023-03-08T13:07:37.495Z,8.40
2023-03-08T13:10:18.419Z,8.50
2023-03-08T13:13:37.127Z,8.60
2023-03-08T13:16:09.019Z,8.90
2023-03-08T13:18:38.015Z,9.50
2023-03-08T13:21:20.029Z,10.00
2023-03-08T13:23:54.565Z,10.40
2023-03-08T13:26:49.809Z,10.60
2023-03-08T13:29:22.301Z,10.90
2023-03-08T13:31:51.366Z,11.10
2023-03-08T13:34:26.810Z,11.10
2023-03-08T13:36:54.946Z,11.20
2023-03-08T13:39:24.864Z,11.20
2023-03-08T13:41:53.118Z,11.20
2023-03-08T13:44:24.935Z,11.20
2023-03-08T13:46:56.359Z,11.20
2023-03-08T13:49:27.359Z,11.10
2023-03-08T13:51:57.515Z,11.10
2023-03-08T13:54:29.709Z,11.10
2023-03-08T13:56:58.104Z,11.00
2023-03-08T13:59:27.887Z,11.00
2023-03-08T14:01:56.249Z,11.00
2023-03-08T14:04:26.376Z,11.00
2023-03-08T14:06:55.907Z,10.90
2023-03-08T14:09:25.735Z,11.00
2023-03-08T14:12:00.338Z,11.00
2023-03-08T14:14:33.865Z,11.10
2023-03-08T14:17:02.342Z,11.20
2023-03-08T14:19:33.148Z,11.40
2023-03-08T14:22:03.237Z,11.50
2023-03-08T14:24:33.816Z,11.60
2023-03-08T14:27:06.241Z,11.50
2023-03-08T14:29:36.289Z,11.50
2023-03-08T14:32:07.349Z,11.50
2023-03-08T14:34:39.324Z,11.50
2023-03-08T14:37:14.262Z,11.50
2023-03-08T14:39:44.350Z,11.40
2023-03-08T14:42:19.311Z,11.30
2023-03-08T14:44:54.210Z,11.30
2023-03-08T14:47:24.340Z,11.30
2023-03-08T14:50:03.716Z,11.30
2023-03-08T14:52:32.719Z,11.30
2023-03-08T14:55:03.326Z,11.20
2023-03-08T14:57:32.543Z,11.20
2023-03-08T15:00:14.014Z,11.30
2023-03-08T15:02:42.048Z,11.30
2023-03-08T15:05:25.493Z,11.30
2023-03-08T15:07:57.359Z,11.40
2023-03-08T15:10:29.135Z,11.40
2023-03-08T15:12:57.490Z,11.50
2023-03-08T15:15:27.462Z,11.60
2023-03-08T15:17:55.417Z,11.70
2023-03-08T15:20:24.950Z,11.70
2023-03-08T15:22:55.391Z,11.80
2023-03-08T15:25:26.604Z,11.90
2023-03-08T15:27:54.522Z,11.90
2023-03-08T15:30:25.399Z,11.90
2023-03-08T15:32:55.175Z,12.00
2023-03-08T15:35:23.868Z,12.00
2023-03-08T15:37:52.305Z,12.00
2023-03-08T15:40:22.124Z,12.10
2023-03-08T15:42:49.964Z,12.20
2023-03-08T15:45:18.146Z,12.10
2023-03-08T15:47:55.837Z,12.10
2023-03-08T15:50:25.627Z,12.10
2023-03-08T15:52:54.501Z,12.00
2023-03-08T15:55:23.769Z,12.00
2023-03-08T15:57:52.106Z,11.90
2023-03-08T16:00:22.312Z,11.80
2023-03-08T16:02:52.060Z,11.70
2023-03-08T16:05:23.447Z,11.80
2023-03-08T16:07:55.627Z,11.70
2023-03-08T16:10:24.266Z,11.60
2023-03-08T16:12:52.152Z,11.60
2023-03-08T16:15:20.734Z,11.50
2023-03-08T16:17:48.811Z,11.50
2023-03-08T16:20:17.415Z,11.40
2023-03-08T16:22:46.657Z,11.40
2023-03-08T16:25:15.864Z,11.30
2023-03-08T16:27:43.701Z,11.20
2023-03-08T16:30:13.502Z,11.10
2023-03-08T16:32:41.751Z,11.00
2023-03-08T16:35:10.126Z,11.00
2023-03-08T16:37:38.223Z,10.80
2023-03-08T16:40:07.385Z,10.80
2023-03-08T16:42:36.839Z,10.70
2023-03-08T16:45:05.458Z,10.70
2023-03-08T16:47:33.656Z,10.60
2023-03-08T16:50:02.104Z,10.50
2023-03-08T16:52:30.007Z,10.50
2023-03-08T16:54:58.021Z,10.50
2023-03-08T16:57:27.059Z,10.60
2023-03-08T16:59:56.523Z,10.50
2023-03-08T17:02:24.453Z,10.50
2023-03-08T17:04:52.453Z,10.60
2023-03-08T17:07:20.311Z,10.60
2023-03-08T17:09:48.138Z,10.50
2023-03-08T17:12:16.160Z,10.40
2023-03-08T17:14:44.642Z,10.40
2023-03-08T17:17:13.969Z,10.30
2023-03-08T17:19:41.818Z,10.20
2023-03-08T17:22:10.291Z,10.20
2023-03-08T17:24:38.288Z,10.20
2023-03-08T17:27:06.231Z,10.20
2023-03-08T17:29:34.036Z,10.20
2023-03-08T17:32:01.948Z,10.20
2023-03-08T17:34:31.311Z,10.10
2023-03-08T17:36:59.168Z,10.10
2023-03-08T17:39:27.060Z,10.20
2023-03-08T17:41:55.017Z,10.10
2023-03-08T17:44:22.852Z,10.00
2023-03-08T17:46:50.687Z,10.00
2023-03-08T17:49:23.154Z,10.00
2023-03-08T17:51:53.181Z,10.00
2023-03-08T17:54:21.691Z,10.00
2023-03-08T17:56:49.499Z,10.00
2023-03-08T17:59:18.899Z,10.00
2023-03-08T18:01:46.824Z,10.00
2023-03-08T18:04:15.042Z,10.00
2023-03-08T18:06:44.450Z,10.10
2023-03-08T18:09:16.150Z,10.00
2023-03-08T18:11:44.751Z,9.90
2023-03-08T18:14:14.197Z,9.80
2023-03-08T18:16:44.611Z,9.80
2023-03-08T18:19:13.135Z,9.70
2023-03-08T18:21:41.941Z,9.70
2023-03-08T18:24:13.657Z,9.70
2023-03-08T18:26:41.577Z,9.60
2023-03-08T18:29:09.439Z,9.60
2023-03-08T18:31:38.383Z,9.60
2023-03-08T18:34:07.108Z,9.60
2023-03-08T18:36:35.815Z,9.60
2023-03-08T18:39:06.135Z,9.50
2023-03-08T18:41:35.894Z,9.40
2023-03-08T18:44:03.698Z,9.30
2023-03-08T18:46:33.198Z,9.20
2023-03-08T18:49:03.041Z,9.20
2023-03-08T18:51:31.788Z,9.30
2023-03-08T18:54:00.124Z,9.40
2023-03-08T18:56:29.036Z,9.40
2023-03-08T18:59:00.843Z,9.40
2023-03-08T19:01:30.346Z,9.50
2023-03-08T19:04:00.125Z,9.50
2023-03-08T19:06:28.322Z,9.50
2023-03-08T19:08:56.694Z,9.50
2023-03-08T19:11:27.365Z,9.40
2023-03-08T19:13:55.591Z,9.30
2023-03-08T19:16:27.142Z,9.30
2023-03-08T19:18:57.332Z,9.30
2023-03-08T19:21:27.354Z,9.20
2023-03-08T19:23:55.902Z,9.30
2023-03-08T19:26:41.327Z,9.40
2023-03-08T19:29:13.197Z,9.40
2023-03-08T19:31:44.836Z,9.40
2023-03-08T19:34:14.150Z,9.50
2023-03-08T19:36:42.718Z,9.50
2023-03-08T19:39:13.596Z,9.50
2023-03-08T19:41:41.517Z,9.50
2023-03-08T19:44:10.125Z,9.60
2023-03-08T19:46:39.296Z,9.60
2023-03-08T19:49:10.534Z,9.60
2023-03-08T19:51:38.945Z,9.80
2023-03-08T19:54:07.341Z,9.80
2023-03-08T19:56:36.119Z,9.60
2023-03-08T19:59:04.544Z,9.50
2023-03-08T20:01:32.603Z,9.50
2023-03-08T20:04:00.752Z,9.40
2023-03-08T20:06:32.126Z,9.40
2023-03-08T20:09:01.104Z,9.30
2023-03-08T20:11:29.269Z,9.30
2023-03-08T20:13:57.666Z,9.30
2023-03-08T20:16:26.100Z,9.30
2023-03-08T20:18:55.836Z,9.40
2023-03-08T20:21:26.727Z,9.40
2023-03-08T20:23:57.627Z,9.40
2023-03-08T20:26:27.425Z,9.50
2023-03-08T20:28:56.242Z,9.50
2023-03-08T20:31:25.046Z,9.60
2023-03-08T20:33:52.997Z,9.50
2023-03-08T20:36:21.015Z,9.50
2023-03-08T20:38:49.236Z,9.50
2023-03-08T20:41:21.485Z,9.50
2023-03-08T20:43:51.305Z,9.50
2023-03-08T20:46:22.301Z,9.60
2023-03-08T20:48:50.682Z,9.60
2023-03-08T20:51:21.708Z,9.60
2023-03-08T20:53:51.521Z,9.50
2023-03-08T20:56:23.312Z,9.50
2023-03-08T20:58:54.604Z,9.50
2023-03-08T21:01:24.274Z,9.50
2023-03-08T21:03:52.244Z,9.60
2023-03-08T21:06:22.170Z,9.60
2023-03-08T21:08:50.476Z,9.60
2023-03-08T21:11:20.930Z,9.70
2023-03-08T21:13:49.269Z,9.80
2023-03-08T21:16:19.947Z,9.80
2023-03-08T21:18:50.651Z,9.80
2023-03-08T21:21:19.979Z,9.80
2023-03-08T21:23:48.000Z,9.70
2023-03-08T21:26:15.851Z,9.70
2023-03-08T21:28:45.237Z,9.80
2023-03-08T21:31:13.227Z,9.80
2023-03-08T21:33:41.185Z,9.90
2023-03-08T21:36:09.830Z,9.90
2023-03-08T21:38:37.839Z,9.90
2023-03-08T21:41:05.867Z,9.90
2023-03-08T21:43:33.729Z,9.90
2023-03-08T21:46:05.549Z,10.00
2023-03-08T21:48:33.698Z,10.00
2023-03-08T21:51:04.415Z,10.00
2023-03-08T21:53:32.461Z,10.00
2023-03-08T21:56:00.539Z,10.00
2023-03-08T21:58:28.561Z,10.10
2023-03-08T22:00:56.409Z,10.10
2023-03-08T22:03:26.661Z,10.20
2023-03-08T22:05:54.537Z,10.20
2023-03-08T22:08:22.510Z,10.20
2023-03-08T22:10:50.634Z,10.30
2023-03-08T22:13:18.530Z,10.30
2023-03-08T22:15:46.417Z,10.40
2023-03-08T22:18:14.230Z,10.40
2023-03-08T22:20:44.709Z,10.50
2023-03-08T22:23:12.773Z,10.50
2023-03-08T22:25:40.638Z,10.50
2023-03-08T22:28:08.483Z,10.50
2023-03-08T22:30:36.479Z,10.50
2023-03-08T22:33:04.407Z,10.50
2023-03-08T22:35:32.334Z,10.60
2023-03-08T22:38:02.017Z,10.60
2023-03-08T22:40:31.612Z,10.60
2023-03-08T22:42:59.488Z,10.60
2023-03-08T22:45:27.378Z,10.60
2023-03-08T22:47:55.474Z,10.60
2023-03-08T22:50:23.528Z,10.60
2023-03-08T22:52:51.600Z,10.60
2023-03-08T22:55:20.892Z,10.60
2023-03-08T22:57:48.731Z,10.70
2023-03-08T23:00:17.375Z,10.70
2023-03-08T23:02:46.815Z,10.80
2023-03-08T23:05:17.862Z,10.80
2023-03-08T23:07:45.987Z,10.90
2023-03-08T23:10:14.862Z,10.90
2023-03-08T23:12:44.147Z,10.90
2023-03-08T23:15:12.632Z,10.90
2023-03-08T23:17:40.794Z,10.90
2023-03-08T23:20:11.809Z,11.00
2023-03-08T23:22:39.641Z,10.90
2023-03-08T23:25:08.599Z,10.90
2023-03-08T23:27:36.457Z,10.90
2023-03-08T23:30:07.322Z,10.90
2023-03-08T23:32:35.484Z,10.80
2023-03-08T23:35:03.436Z,10.80
2023-03-08T23:37:31.562Z,10.80
2023-03-08T23:39:59.586Z,10.70
2023-03-08T23:42:27.474Z,10.70
2023-03-08T23:44:55.311Z,10.60
2023-03-08T23:47:24.531Z,10.50
2023-03-08T23:49:52.405Z,10.50
2023-03-08T23:52:21.065Z,10.60
2023-03-08T23:54:49.153Z,10.60
2023-03-08T23:57:17.114Z,10.50
2023-03-08T23:59:44.958Z,10.50
